sensor_id;sensor_type;location;lat;lon;timestamp;pressure;altitude;pressure_sealevel;temperature;humidity
6833;BME280;3454;42.654;23.378;2023-05-03T00:02:25;64362.25;;;13.38;45.74
6833;BME280;3454;42.654;23.378;2023-05-03T00:04:51;64367.94;;;13.46;45.49
6833;BME280;3454;42.654;23.378;2023-05-03T00:07:17;64367.72;;;13.43;45.35
6833;BME280;3454;42.654;23.378;2023-05-03T00:09:43;64384.75;;;13.59;45.86
6833;BME280;3454;42.654;23.378;2023-05-03T00:12:08;64377.50;;;13.57;45.69
6833;BME280;3454;42.654;23.378;2023-05-03T00:14:33;64380.56;;;13.58;45.86
6833;BME280;3454;42.654;23.378;2023-05-03T00:16:59;64383.31;;;13.60;46.57
6833;BME280;3454;42.654;23.378;2023-05-03T00:19:24;64369.56;;;13.47;46.23
6833;BME280;3454;42.654;23.378;2023-05-03T00:21:54;64340.84;;;13.19;46.30
6833;BME280;3454;42.654;23.378;2023-05-03T00:24:19;64321.28;;;13.03;46.60
6833;BME280;3454;42.654;23.378;2023-05-03T00:26:45;64312.81;;;12.93;47.23
6833;BME280;3454;42.654;23.378;2023-05-03T00:29:10;64316.53;;;13.01;47.58
6833;BME280;3454;42.654;23.378;2023-05-03T00:31:36;64316.53;;;13.01;47.65
6833;BME280;3454;42.654;23.378;2023-05-03T00:34:01;64319.06;;;13.01;47.40
6833;BME280;3454;42.654;23.378;2023-05-03T00:36:27;64307.03;;;12.90;47.02
6833;BME280;3454;42.654;23.378;2023-05-03T00:38:52;64302.63;;;12.86;47.32
6833;BME280;3454;42.654;23.378;2023-05-03T00:41:18;64280.69;;;12.66;47.33
6833;BME280;3454;42.654;23.378;2023-05-03T00:43:43;64271.69;;;12.55;47.75
6833;BME280;3454;42.654;23.378;2023-05-03T00:46:09;64260.19;;;12.45;47.14
6833;BME280;3454;42.654;23.378;2023-05-03T00:48:35;64265.00;;;12.54;48.34
6833;BME280;3454;42.654;23.378;2023-05-03T00:51:02;64278.50;;;12.64;46.70
6833;BME280;3454;42.654;23.378;2023-05-03T00:53:29;64281.78;;;12.67;47.76
6833;BME280;3454;42.654;23.378;2023-05-03T00:55:56;64274.66;;;12.60;47.47
6833;BME280;3454;42.654;23.378;2023-05-03T00:58:23;64268.06;;;12.54;48.13
6833;BME280;3454;42.654;23.378;2023-05-03T01:00:49;64272.44;;;12.58;48.25
6833;BME280;3454;42.654;23.378;2023-05-03T01:03:14;64281.78;;;12.67;48.28
6833;BME280;3454;42.654;23.378;2023-05-03T01:06:02;64270.06;;;12.54;47.56
6833;BME280;3454;42.654;23.378;2023-05-03T01:09:14;64271.38;;;12.57;47.13
6833;BME280;3454;42.654;23.378;2023-05-03T01:11:26;64253.81;;;12.41;48.45
6833;BME280;3454;42.654;23.378;2023-05-03T01:14:07;64239.78;;;12.31;48.26
6833;BME280;3454;42.654;23.378;2023-05-03T01:17:02;64250.19;;;12.40;49.10
6833;BME280;3454;42.654;23.378;2023-05-03T01:19:40;64251.63;;;12.39;48.97
6833;BME280;3454;42.654;23.378;2023-05-03T01:25:09;64234.63;;;12.24;49.08
6833;BME280;3454;42.654;23.378;2023-05-03T01:27:36;64237.69;;;12.24;48.91
6833;BME280;3454;42.654;23.378;2023-05-03T01:30:07;64235.50;;;12.22;49.58
6833;BME280;3454;42.654;23.378;2023-05-03T01:32:44;64237.59;;;12.29;49.22
6833;BME280;3454;42.654;23.378;2023-05-03T01:35:29;64256.00;;;12.43;49.00
6833;BME280;3454;42.654;23.378;2023-05-03T01:37:57;64259.44;;;12.42;49.07
6833;BME280;3454;42.654;23.378;2023-05-03T01:40:25;64256.56;;;12.44;48.33
6833;BME280;3454;42.654;23.378;2023-05-03T01:42:54;64257.97;;;12.43;48.25
6833;BME280;3454;42.654;23.378;2023-05-03T01:45:26;64254.38;;;12.42;48.41
6833;BME280;3454;42.654;23.378;2023-05-03T01:47:51;64239.34;;;12.26;48.29
6833;BME280;3454;42.654;23.378;2023-05-03T01:50:17;64227.50;;;12.17;48.92
6833;BME280;3454;42.654;23.378;2023-05-03T01:52:42;64228.06;;;12.18;49.67
6833;BME280;3454;42.654;23.378;2023-05-03T01:55:09;64224.75;;;12.15;49.18
6833;BME280;3454;42.654;23.378;2023-05-03T01:57:34;64216.00;;;12.07;49.24
6833;BME280;3454;42.654;23.378;2023-05-03T02:00:00;64222.00;;;12.12;49.33
6833;BME280;3454;42.654;23.378;2023-05-03T02:02:32;64234.63;;;12.24;48.78
6833;BME280;3454;42.654;23.378;2023-05-03T02:04:57;64215.44;;;12.06;50.33
6833;BME280;3454;42.654;23.378;2023-05-03T02:07:22;64216.53;;;12.07;50.10
6833;BME280;3454;42.654;23.378;2023-05-03T02:09:48;64224.00;;;12.12;51.43
6833;BME280;3454;42.654;23.378;2023-05-03T02:12:13;64227.84;;;12.15;49.70
6833;BME280;3454;42.654;23.378;2023-05-03T02:14:39;64233.44;;;12.16;50.98
6833;BME280;3454;42.654;23.378;2023-05-03T02:17:05;64221.47;;;12.12;49.92
6833;BME280;3454;42.654;23.378;2023-05-03T02:19:32;64197.69;;;11.88;50.29
6833;BME280;3454;42.654;23.378;2023-05-03T02:21:57;64188.94;;;11.79;50.89
6833;BME280;3454;42.654;23.378;2023-05-03T02:24:23;64180.16;;;11.71;51.26
6833;BME280;3454;42.654;23.378;2023-05-03T02:26:48;64168.31;;;11.63;51.68
6833;BME280;3454;42.654;23.378;2023-05-03T02:29:14;64168.84;;;11.63;51.58
6833;BME280;3454;42.654;23.378;2023-05-03T02:31:40;64163.38;;;11.58;52.29
6833;BME280;3454;42.654;23.378;2023-05-03T02:34:05;64173.25;;;11.67;53.28
6833;BME280;3454;42.654;23.378;2023-05-03T02:36:30;64173.47;;;11.70;52.50
6833;BME280;3454;42.654;23.378;2023-05-03T02:38:56;64188.38;;;11.79;52.50
6833;BME280;3454;42.654;23.378;2023-05-03T02:41:21;64175.97;;;11.70;51.87
6833;BME280;3454;42.654;23.378;2023-05-03T02:43:47;64165.00;;;11.60;51.67
6833;BME280;3454;42.654;23.378;2023-05-03T02:46:13;64164.47;;;11.59;52.04
6833;BME280;3454;42.654;23.378;2023-05-03T02:48:38;64154.81;;;11.53;52.80
6833;BME280;3454;42.654;23.378;2023-05-03T02:51:04;64160.06;;;11.55;52.89
6833;BME280;3454;42.654;23.378;2023-05-03T02:53:30;64166.66;;;11.61;52.84
6833;BME280;3454;42.654;23.378;2023-05-03T02:55:55;64166.66;;;11.61;52.71
6833;BME280;3454;42.654;23.378;2023-05-03T02:58:21;64154.94;;;11.48;52.34
6833;BME280;3454;42.654;23.378;2023-05-03T03:00:46;64143.66;;;11.40;52.76
6833;BME280;3454;42.654;23.378;2023-05-03T03:03:12;64138.16;;;11.35;53.31
6833;BME280;3454;42.654;23.378;2023-05-03T03:05:38;64146.91;;;11.43;51.89
6833;BME280;3454;42.654;23.378;2023-05-03T03:08:04;64143.66;;;11.40;52.60
6833;BME280;3454;42.654;23.378;2023-05-03T03:10:29;64136.28;;;11.31;52.65
6833;BME280;3454;42.654;23.378;2023-05-03T03:12:55;64130.84;;;11.26;52.85
6833;BME280;3454;42.654;23.378;2023-05-03T03:15:20;64119.88;;;11.16;53.26
6833;BME280;3454;42.654;23.378;2023-05-03T03:17:46;64121.19;;;11.20;53.44
6833;BME280;3454;42.654;23.378;2023-05-03T03:20:11;64119.88;;;11.16;53.09
6833;BME280;3454;42.654;23.378;2023-05-03T03:22:38;64125.91;;;11.22;53.85
6833;BME280;3454;42.654;23.378;2023-05-03T03:25:04;64133.25;;;11.31;53.71
6833;BME280;3454;42.654;23.378;2023-05-03T03:27:31;64124.81;;;11.21;53.96
6833;BME280;3454;42.654;23.378;2023-05-03T03:29:57;64135.22;;;11.30;54.47
6833;BME280;3454;42.654;23.378;2023-05-03T03:32:23;64147.25;;;11.41;53.30
6833;BME280;3454;42.654;23.378;2023-05-03T03:34:48;64142.34;;;11.37;53.30
6833;BME280;3454;42.654;23.378;2023-05-03T03:37:14;64125.00;;;11.23;53.80
6833;BME280;3454;42.654;23.378;2023-05-03T03:39:39;64112.44;;;11.12;54.46
6833;BME280;3454;42.654;23.378;2023-05-03T03:42:06;64105.84;;;11.06;54.59
6833;BME280;3454;42.654;23.378;2023-05-03T03:44:31;64103.66;;;11.04;54.62
6833;BME280;3454;42.654;23.378;2023-05-03T03:46:57;64102.03;;;11.02;54.43
6833;BME280;3454;42.654;23.378;2023-05-03T03:49:22;64096.53;;;10.97;54.65
6833;BME280;3454;42.654;23.378;2023-05-03T03:51:48;64114.06;;;11.13;54.63
6833;BME280;3454;42.654;23.378;2023-05-03T03:54:13;64115.50;;;11.12;54.01
6833;BME280;3454;42.654;23.378;2023-05-03T03:56:38;64107.50;;;11.07;54.10
6833;BME280;3454;42.654;23.378;2023-05-03T03:59:04;64107.81;;;11.05;54.74
6833;BME280;3454;42.654;23.378;2023-05-03T04:01:30;64120.22;;;11.14;53.82
6833;BME280;3454;42.654;23.378;2023-05-03T04:03:56;64113.31;;;11.10;54.15
6833;BME280;3454;42.654;23.378;2023-05-03T04:06:21;64110.56;;;11.08;53.90
6833;BME280;3454;42.654;23.378;2023-05-03T04:08:46;64104.00;;;11.02;54.20
6833;BME280;3454;42.654;23.378;2023-05-03T04:11:12;64097.44;;;10.95;54.34
6833;BME280;3454;42.654;23.378;2023-05-03T04:13:37;64095.22;;;10.93;54.41
6833;BME280;3454;42.654;23.378;2023-05-03T04:16:05;64097.31;;;11.00;55.21
6833;BME280;3454;42.654;23.378;2023-05-03T04:18:30;64113.84;;;11.11;54.68
6833;BME280;3454;42.654;23.378;2023-05-03T04:20:56;64119.88;;;11.16;54.38
6833;BME280;3454;42.654;23.378;2023-05-03T04:23:21;64111.88;;;11.11;54.42
6833;BME280;3454;42.654;23.378;2023-05-03T04:25:46;64118.78;;;11.15;54.21
6833;BME280;3454;42.654;23.378;2023-05-03T04:28:13;64106.06;;;11.08;54.89
6833;BME280;3454;42.654;23.378;2023-05-03T04:30:39;64112.75;;;11.10;56.69
6833;BME280;3454;42.654;23.378;2023-05-03T04:33:07;64100.91;;;11.01;56.57
6833;BME280;3454;42.654;23.378;2023-05-03T04:35:33;64094.56;;;10.97;57.39
6833;BME280;3454;42.654;23.378;2023-05-03T04:37:58;64095.22;;;10.93;59.05
6833;BME280;3454;42.654;23.378;2023-05-03T04:40:24;64094.69;;;10.93;58.79
6833;BME280;3454;42.654;23.378;2023-05-03T04:42:49;64117.69;;;11.14;58.29
6833;BME280;3454;42.654;23.378;2023-05-03T04:45:15;64127.19;;;11.25;58.79
6833;BME280;3454;42.654;23.378;2023-05-03T04:47:40;64155.69;;;11.51;58.06
6833;BME280;3454;42.654;23.378;2023-05-03T04:50:07;64175.44;;;11.69;59.22
6833;BME280;3454;42.654;23.378;2023-05-03T04:52:33;64179.06;;;11.70;58.67
6833;BME280;3454;42.654;23.378;2023-05-03T04:54:58;64199.88;;;11.90;60.15
6833;BME280;3454;42.654;23.378;2023-05-03T04:57:23;64190.78;;;11.84;60.00
6833;BME280;3454;42.654;23.378;2023-05-03T04:59:49;64182.78;;;11.78;60.79
6833;BME280;3454;42.654;23.378;2023-05-03T05:02:15;64169.19;;;11.61;61.58
6833;BME280;3454;42.654;23.378;2023-05-03T05:04:40;64148.34;;;11.42;62.52
6833;BME280;3454;42.654;23.378;2023-05-03T05:07:06;64122.28;;;11.21;62.77
6833;BME280;3454;42.654;23.378;2023-05-03T05:09:32;64121.19;;;11.20;62.21
6833;BME280;3454;42.654;23.378;2023-05-03T05:11:57;64126.66;;;11.25;62.37
6833;BME280;3454;42.654;23.378;2023-05-03T05:14:24;64127.75;;;11.26;63.46
6833;BME280;3454;42.654;23.378;2023-05-03T05:16:51;64130.84;;;11.26;62.91
6833;BME280;3454;42.654;23.378;2023-05-03T05:19:16;64137.63;;;11.35;62.88
6833;BME280;3454;42.654;23.378;2023-05-03T05:21:42;64112.75;;;11.10;63.01
6833;BME280;3454;42.654;23.378;2023-05-03T05:24:07;64103.09;;;11.03;62.44
6833;BME280;3454;42.654;23.378;2023-05-03T05:26:33;64102.03;;;11.02;63.38
6833;BME280;3454;42.654;23.378;2023-05-03T05:28:58;64108.59;;;11.08;63.18
6833;BME280;3454;42.654;23.378;2023-05-03T05:31:24;64112.75;;;11.10;63.79
6833;BME280;3454;42.654;23.378;2023-05-03T05:33:49;64122.63;;;11.19;63.41
6833;BME280;3454;42.654;23.378;2023-05-03T05:36:15;64122.81;;;11.21;62.25
6833;BME280;3454;42.654;23.378;2023-05-03T05:38:40;64128.31;;;11.26;62.71
6833;BME280;3454;42.654;23.378;2023-05-03T05:41:06;64137.63;;;11.35;63.09
6833;BME280;3454;42.654;23.378;2023-05-03T05:43:31;64152.75;;;11.46;63.17
6833;BME280;3454;42.654;23.378;2023-05-03T05:45:57;64163.69;;;11.56;62.13
6833;BME280;3454;42.654;23.378;2023-05-03T05:48:22;64147.69;;;11.46;59.86
6833;BME280;3454;42.654;23.378;2023-05-03T05:50:48;64139.47;;;11.39;60.59
6833;BME280;3454;42.654;23.378;2023-05-03T05:53:13;64137.97;;;11.33;60.38
6833;BME280;3454;42.654;23.378;2023-05-03T05:55:39;64138.16;;;11.35;60.66
6833;BME280;3454;42.654;23.378;2023-05-03T05:58:04;64122.81;;;11.21;61.38
6833;BME280;3454;42.654;23.378;2023-05-03T06:00:30;64126.66;;;11.25;60.11
6833;BME280;3454;42.654;23.378;2023-05-03T06:02:55;64131.38;;;11.27;60.70
6833;BME280;3454;42.654;23.378;2023-05-03T06:05:21;64138.50;;;11.33;61.28
6833;BME280;3454;42.654;23.378;2023-05-03T06:07:48;64152.19;;;11.46;61.20
6833;BME280;3454;42.654;23.378;2023-05-03T06:10:13;64159.88;;;11.53;60.47
6833;BME280;3454;42.654;23.378;2023-05-03T06:12:39;64158.22;;;11.51;61.79
6833;BME280;3454;42.654;23.378;2023-05-03T06:15:05;64173.56;;;11.65;60.65
6833;BME280;3454;42.654;23.378;2023-05-03T06:17:31;64173.56;;;11.65;60.28
6833;BME280;3454;42.654;23.378;2023-05-03T06:19:57;64184.00;;;11.75;62.42
6833;BME280;3454;42.654;23.378;2023-05-03T06:22:23;64189.69;;;11.82;60.97
6833;BME280;3454;42.654;23.378;2023-05-03T06:24:49;64206.13;;;11.98;58.90
6833;BME280;3454;42.654;23.378;2023-05-03T06:27:15;64186.94;;;11.80;60.66
6833;BME280;3454;42.654;23.378;2023-05-03T06:29:40;64178.72;;;11.72;60.78
6833;BME280;3454;42.654;23.378;2023-05-03T06:32:08;64188.59;;;11.82;61.26
6833;BME280;3454;42.654;23.378;2023-05-03T06:34:33;64187.28;;;11.78;61.54
6833;BME280;3454;42.654;23.378;2023-05-03T06:36:59;64197.69;;;11.88;62.22
6833;BME280;3454;42.654;23.378;2023-05-03T06:39:24;64208.09;;;11.97;61.91
6833;BME280;3454;42.654;23.378;2023-05-03T06:41:50;64208.09;;;11.97;62.60
6833;BME280;3454;42.654;23.378;2023-05-03T06:44:16;64224.53;;;12.12;61.67
6833;BME280;3454;42.654;23.378;2023-05-03T06:46:41;64219.63;;;12.08;60.37
6833;BME280;3454;42.654;23.378;2023-05-03T06:49:07;64193.31;;;11.84;60.10
6833;BME280;3454;42.654;23.378;2023-05-03T06:51:33;64190.78;;;11.84;61.89
6833;BME280;3454;42.654;23.378;2023-05-03T06:53:59;64206.47;;;11.96;62.53
6833;BME280;3454;42.654;23.378;2023-05-03T06:56:31;64208.00;;;12.02;61.11
6833;BME280;3454;42.654;23.378;2023-05-03T06:58:57;64216.00;;;12.07;63.75
6833;BME280;3454;42.654;23.378;2023-05-03T07:01:22;64222.00;;;12.12;60.09
6833;BME280;3454;42.654;23.378;2023-05-03T07:03:48;64225.09;;;12.13;59.38
6833;BME280;3454;42.654;23.378;2023-05-03T07:06:13;64211.38;;;12.00;59.90
6833;BME280;3454;42.654;23.378;2023-05-03T07:08:39;64198.44;;;11.91;62.20
6833;BME280;3454;42.654;23.378;2023-05-03T07:11:04;64203.16;;;11.93;61.86
6833;BME280;3454;42.654;23.378;2023-05-03T07:13:30;64194.94;;;11.85;61.69
6833;BME280;3454;42.654;23.378;2023-05-03T07:15:55;64209.41;;;12.01;62.57
6833;BME280;3454;42.654;23.378;2023-05-03T07:18:21;64222.91;;;12.11;62.41
6833;BME280;3454;42.654;23.378;2023-05-03T07:20:46;64213.03;;;12.02;61.45
6833;BME280;3454;42.654;23.378;2023-05-03T07:23:13;64227.28;;;12.15;63.15
6833;BME280;3454;42.654;23.378;2023-05-03T07:25:41;64241.41;;;12.32;63.64
6833;BME280;3454;42.654;23.378;2023-05-03T07:28:06;64243.41;;;12.32;61.57
6833;BME280;3454;42.654;23.378;2023-05-03T07:30:31;64232.44;;;12.22;61.65
6833;BME280;3454;42.654;23.378;2023-05-03T07:32:57;64228.81;;;12.21;62.29
6833;BME280;3454;42.654;23.378;2023-05-03T07:35:22;64226.72;;;12.14;62.09
6833;BME280;3454;42.654;23.378;2023-05-03T07:37:48;64202.84;;;11.95;63.50
6833;BME280;3454;42.654;23.378;2023-05-03T07:40:13;64213.78;;;12.05;63.97
6833;BME280;3454;42.654;23.378;2023-05-03T07:42:39;64241.22;;;12.30;63.72
6833;BME280;3454;42.654;23.378;2023-05-03T07:45:05;64249.75;;;12.35;63.87
6833;BME280;3454;42.654;23.378;2023-05-03T07:47:31;64244.50;;;12.33;62.01
6833;BME280;3454;42.654;23.378;2023-05-03T07:49:57;64235.16;;;12.24;63.96
6833;BME280;3454;42.654;23.378;2023-05-03T07:52:22;64244.81;;;12.31;63.50
6833;BME280;3454;42.654;23.378;2023-05-03T07:54:48;64253.81;;;12.41;63.12
6833;BME280;3454;42.654;23.378;2023-05-03T07:57:14;64204.81;;;11.94;64.42
6833;BME280;3454;42.654;23.378;2023-05-03T07:59:41;64239.56;;;12.28;64.22
6833;BME280;3454;42.654;23.378;2023-05-03T08:02:07;64240.66;;;12.29;64.02
6833;BME280;3454;42.654;23.378;2023-05-03T08:04:33;64279.81;;;12.68;65.37
6833;BME280;3454;42.654;23.378;2023-05-03T08:07:01;64318.31;;;12.98;64.86
6833;BME280;3454;42.654;23.378;2023-05-03T08:09:28;64324.59;;;13.06;63.09
6833;BME280;3454;42.654;23.378;2023-05-03T08:11:55;64330.63;;;13.12;62.21
6833;BME280;3454;42.654;23.378;2023-05-03T08:14:21;64331.19;;;13.12;62.54
6833;BME280;3454;42.654;23.378;2023-05-03T08:16:47;64381.66;;;13.59;63.44
6833;BME280;3454;42.654;23.378;2023-05-03T08:19:13;64392.66;;;13.69;61.38
6833;BME280;3454;42.654;23.378;2023-05-03T08:21:38;64421.19;;;13.95;62.23
6833;BME280;3454;42.654;23.378;2023-05-03T08:24:04;64448.09;;;14.19;60.42
6833;BME280;3454;42.654;23.378;2023-05-03T08:26:34;64438.00;;;14.08;59.29
6833;BME280;3454;42.654;23.378;2023-05-03T08:28:59;64447.91;;;14.17;60.28
6833;BME280;3454;42.654;23.378;2023-05-03T08:31:27;64467.34;;;14.37;59.63
6833;BME280;3454;42.654;23.378;2023-05-03T08:33:54;64451.41;;;14.22;60.22
6833;BME280;3454;42.654;23.378;2023-05-03T08:36:20;64490.97;;;14.59;60.23
6833;BME280;3454;42.654;23.378;2023-05-03T08:38:45;64527.25;;;14.92;60.28
6833;BME280;3454;42.654;23.378;2023-05-03T08:41:21;64557.47;;;15.20;59.19
6833;BME280;3454;42.654;23.378;2023-05-03T08:43:54;64566.81;;;15.28;58.12
6833;BME280;3454;42.654;23.378;2023-05-03T08:46:19;64565.19;;;15.27;57.94
6833;BME280;3454;42.654;23.378;2023-05-03T08:48:50;64623.72;;;15.82;57.55
6833;BME280;3454;42.654;23.378;2023-05-03T08:51:17;64669.72;;;16.22;55.14
6833;BME280;3454;42.654;23.378;2023-05-03T08:53:43;64628.66;;;15.87;55.82
6833;BME280;3454;42.654;23.378;2023-05-03T08:56:09;64577.06;;;15.35;55.25
6833;BME280;3454;42.654;23.378;2023-05-03T08:58:37;64562.97;;;15.25;56.58
6833;BME280;3454;42.654;23.378;2023-05-03T09:01:06;64566.63;;;15.26;57.45
6833;BME280;3454;42.654;23.378;2023-05-03T09:03:33;64586.97;;;15.44;59.12
6833;BME280;3454;42.654;23.378;2023-05-03T09:05:59;64619.09;;;15.76;58.36
6833;BME280;3454;42.654;23.378;2023-05-03T09:08:28;64661.66;;;16.17;56.02
6833;BME280;3454;42.654;23.378;2023-05-03T09:10:55;64615.81;;;15.73;57.20
6833;BME280;3454;42.654;23.378;2023-05-03T09:13:28;64693.59;;;16.46;54.79
6833;BME280;3454;42.654;23.378;2023-05-03T09:15:55;64755.81;;;17.03;55.24
6833;BME280;3454;42.654;23.378;2023-05-03T09:18:21;64729.41;;;16.79;54.24
6833;BME280;3454;42.654;23.378;2023-05-03T09:20:49;64767.41;;;17.14;53.62
6833;BME280;3454;42.654;23.378;2023-05-03T09:25:50;64784.81;;;17.27;53.12
6833;BME280;3454;42.654;23.378;2023-05-03T09:28:17;64781.84;;;17.22;54.19
6833;BME280;3454;42.654;23.378;2023-05-03T09:30:44;64775.47;;;17.19;53.13
6833;BME280;3454;42.654;23.378;2023-05-03T09:33:11;64830.56;;;17.69;54.15
6833;BME280;3454;42.654;23.378;2023-05-03T09:35:37;64855.91;;;17.92;52.00
6833;BME280;3454;42.654;23.378;2023-05-03T09:38:03;64839.41;;;17.77;52.51
6833;BME280;3454;42.654;23.378;2023-05-03T09:40:28;64825.28;;;17.67;51.66
6833;BME280;3454;42.654;23.378;2023-05-03T09:43:05;64879.84;;;18.16;50.96
6833;BME280;3454;42.654;23.378;2023-05-03T09:45:32;64967.91;;;18.94;50.80
6833;BME280;3454;42.654;23.378;2023-05-03T09:48:00;64978.78;;;19.09;47.22
6833;BME280;3454;42.654;23.378;2023-05-03T09:50:26;65037.47;;;19.58;48.32
6833;BME280;3454;42.654;23.378;2023-05-03T09:52:52;65067.50;;;19.87;46.32
6833;BME280;3454;42.654;23.378;2023-05-03T09:55:20;65145.38;;;20.58;44.93
6833;BME280;3454;42.654;23.378;2023-05-03T09:57:46;65129.38;;;20.44;45.15
6833;BME280;3454;42.654;23.378;2023-05-03T10:00:12;65147.25;;;20.62;44.67
6833;BME280;3454;42.654;23.378;2023-05-03T10:02:41;65231.66;;;21.37;45.42
6833;BME280;3454;42.654;23.378;2023-05-03T10:05:09;65264.44;;;21.62;44.48
6833;BME280;3454;42.654;23.378;2023-05-03T10:07:38;65163.09;;;20.74;44.36
6833;BME280;3454;42.654;23.378;2023-05-03T10:10:06;65164.19;;;20.75;45.54
6833;BME280;3454;42.654;23.378;2023-05-03T10:12:32;65101.16;;;20.18;45.18
6833;BME280;3454;42.654;23.378;2023-05-03T10:15:03;65110.38;;;20.24;46.46
6833;BME280;3454;42.654;23.378;2023-05-03T10:17:31;65116.66;;;20.32;45.16
6833;BME280;3454;42.654;23.378;2023-05-03T10:20:18;65149.28;;;20.62;45.21
6833;BME280;3454;42.654;23.378;2023-05-03T10:25:28;65153.13;;;20.65;46.31
6833;BME280;3454;42.654;23.378;2023-05-03T10:28:01;65096.22;;;20.14;45.54
6833;BME280;3454;42.654;23.378;2023-05-03T10:30:34;65084.75;;;19.98;46.62
6833;BME280;3454;42.654;23.378;2023-05-03T10:33:33;65034.38;;;19.57;48.42
6833;BME280;3454;42.654;23.378;2023-05-03T10:36:05;65036.56;;;19.59;46.87
6833;BME280;3454;42.654;23.378;2023-05-03T10:38:31;65023.88;;;19.48;48.15
6833;BME280;3454;42.654;23.378;2023-05-03T10:40:58;64979.47;;;19.05;48.57
6833;BME280;3454;42.654;23.378;2023-05-03T10:46:03;64941.63;;;18.73;48.74
6833;BME280;3454;42.654;23.378;2023-05-03T10:48:30;64973.97;;;19.00;48.58
6833;BME280;3454;42.654;23.378;2023-05-03T10:50:56;64965.88;;;18.95;50.93
6833;BME280;3454;42.654;23.378;2023-05-03T10:53:41;64959.81;;;18.89;50.86
6833;BME280;3454;42.654;23.378;2023-05-03T10:56:11;64939.41;;;18.71;50.66
6833;BME280;3454;42.654;23.378;2023-05-03T10:58:47;64930.59;;;18.63;51.40
6833;BME280;3454;42.654;23.378;2023-05-03T11:01:15;64928.53;;;18.56;50.26
6833;BME280;3454;42.654;23.378;2023-05-03T11:04:31;64904.66;;;18.39;50.07
6833;BME280;3454;42.654;23.378;2023-05-03T11:06:53;64916.59;;;18.48;48.91
6833;BME280;3454;42.654;23.378;2023-05-03T11:09:29;64929.50;;;18.62;48.10
6833;BME280;3454;42.654;23.378;2023-05-03T11:11:55;64891.41;;;18.27;49.67
6833;BME280;3454;42.654;23.378;2023-05-03T11:14:21;64909.97;;;18.41;51.20
6833;BME280;3454;42.654;23.378;2023-05-03T11:16:46;64901.34;;;18.36;50.09
6833;BME280;3454;42.654;23.378;2023-05-03T11:19:15;64872.88;;;18.12;50.12
6833;BME280;3454;42.654;23.378;2023-05-03T11:21:42;64850.41;;;17.87;50.81
6833;BME280;3454;42.654;23.378;2023-05-03T11:24:08;64858.91;;;17.97;51.19
6833;BME280;3454;42.654;23.378;2023-05-03T11:26:37;64857.91;;;17.92;51.38
6833;BME280;3454;42.654;23.378;2023-05-03T11:29:03;64865.50;;;18.03;50.94
6833;BME280;3454;42.654;23.378;2023-05-03T11:31:29;64912.94;;;18.47;51.29
6833;BME280;3454;42.654;23.378;2023-05-03T11:33:54;64971.75;;;18.98;50.24
6833;BME280;3454;42.654;23.378;2023-05-03T11:36:20;65079.44;;;19.96;48.62
6833;BME280;3454;42.654;23.378;2023-05-03T11:38:45;65067.50;;;19.87;48.64
6833;BME280;3454;42.654;23.378;2023-05-03T11:41:15;65128.25;;;20.43;47.91
6833;BME280;3454;42.654;23.378;2023-05-03T11:43:46;65259.09;;;21.59;45.50
6833;BME280;3454;42.654;23.378;2023-05-03T11:46:20;65216.72;;;21.23;45.77
6833;BME280;3454;42.654;23.378;2023-05-03T11:48:47;65161.97;;;20.73;46.71
6833;BME280;3454;42.654;23.378;2023-05-03T11:51:13;65134.34;;;20.48;47.90
6833;BME280;3454;42.654;23.378;2023-05-03T11:53:40;65087.16;;;20.03;48.31
6833;BME280;3454;42.654;23.378;2023-05-03T11:56:10;65092.88;;;20.10;49.72
6833;BME280;3454;42.654;23.378;2023-05-03T11:58:58;65073.91;;;19.91;48.71
6833;BME280;3454;42.654;23.378;2023-05-03T12:01:26;64975.28;;;19.03;50.14
6833;BME280;3454;42.654;23.378;2023-05-03T12:03:53;65035.81;;;19.56;50.88
6833;BME280;3454;42.654;23.378;2023-05-03T12:06:20;65101.72;;;20.19;50.40
6833;BME280;3454;42.654;23.378;2023-05-03T12:08:46;65145.38;;;20.58;47.10
6833;BME280;3454;42.654;23.378;2023-05-03T12:11:11;65108.94;;;20.25;48.23
6833;BME280;3454;42.654;23.378;2023-05-03T12:13:38;65046.50;;;19.68;49.43
6833;BME280;3454;42.654;23.378;2023-05-03T12:16:04;65028.50;;;19.54;49.25
6833;BME280;3454;42.654;23.378;2023-05-03T12:18:46;64937.91;;;18.65;51.47
6833;BME280;3454;42.654;23.378;2023-05-03T12:21:14;64932.94;;;18.60;52.95
6833;BME280;3454;42.654;23.378;2023-05-03T12:23:39;64922.44;;;18.51;52.58
6833;BME280;3454;42.654;23.378;2023-05-03T12:26:14;64853.16;;;17.90;54.29
6833;BME280;3454;42.654;23.378;2023-05-03T12:28:40;64836.84;;;17.77;55.82
6833;BME280;3454;42.654;23.378;2023-05-03T12:31:05;64823.63;;;17.65;56.34
6833;BME280;3454;42.654;23.378;2023-05-03T12:33:30;64799.69;;;17.41;56.34
6833;BME280;3454;42.654;23.378;2023-05-03T12:35:57;64767.19;;;17.11;57.97
6833;BME280;3454;42.654;23.378;2023-05-03T12:38:22;64748.13;;;16.96;59.07
6833;BME280;3454;42.654;23.378;2023-05-03T12:40:48;64737.25;;;16.82;59.73
6833;BME280;3454;42.654;23.378;2023-05-03T12:43:20;64730.72;;;16.83;60.04
6833;BME280;3454;42.654;23.378;2023-05-03T12:45:46;64735.25;;;16.82;60.68
6833;BME280;3454;42.654;23.378;2023-05-03T12:48:11;64717.63;;;16.66;60.77
6833;BME280;3454;42.654;23.378;2023-05-03T12:50:37;64697.25;;;16.47;61.79
6833;BME280;3454;42.654;23.378;2023-05-03T12:53:03;64688.44;;;16.39;60.52
6833;BME280;3454;42.654;23.378;2023-05-03T12:55:28;64677.09;;;16.31;61.67
6833;BME280;3454;42.654;23.378;2023-05-03T12:57:58;64683.47;;;16.35;63.91
6833;BME280;3454;42.654;23.378;2023-05-03T13:00:24;64686.44;;;16.40;66.45
6833;BME280;3454;42.654;23.378;2023-05-03T13:02:50;64666.41;;;16.19;67.33
6833;BME280;3454;42.654;23.378;2023-05-03T13:05:15;64625.69;;;15.82;69.29
6833;BME280;3454;42.654;23.378;2023-05-03T13:07:41;64626.25;;;15.82;68.41
6833;BME280;3454;42.654;23.378;2023-05-03T13:10:07;64596.00;;;15.55;69.60
6833;BME280;3454;42.654;23.378;2023-05-03T13:12:34;64583.56;;;15.46;70.54
6833;BME280;3454;42.654;23.378;2023-05-03T13:15:01;64562.44;;;15.24;69.99
6833;BME280;3454;42.654;23.378;2023-05-03T13:17:27;64555.06;;;15.15;71.78
6833;BME280;3454;42.654;23.378;2023-05-03T13:19:54;64557.13;;;15.22;72.90
6833;BME280;3454;42.654;23.378;2023-05-03T13:22:19;64530.75;;;14.97;70.41